Terminal Aerodrome Forecast
Issued by NWS

Home | Current Version | Previous Version | Text Only | Print | Product List | Glossary On
Versions: 1 2 3 4 5 6 7 8 9 10 11 12 13 14 15 16 17 18 19 20 21 22 23 24 25 26 27 28 29 30 31 32 33 34 35 36 37 38 39 40 41 42
000
FTAK31 PAFA 261339 AAA
TAFABT
TAF AMD
PABT 261339Z 2614/2712 21010KT P6SM VCSH BKN015 OVC025
      TEMPO 2614/2618 24008KT 1 1/2SM -SN BR BKN010 OVC025
     FM262100 21008KT 4SM -SN BR BKN015 OVC025=

USA.gov is the U.S. government's official web portal to all federal, state and local government web resources and services.